Valemount, Canada
Current Conditions -  °F | °C
As of 2:26 AM on Thursday 27 Nov 2014 (Local Time) from CYWL Reporting Station
Light Snow Light Snow  
Wind Chill: 23°   Ceiling: 800
Heat Index: 28°   Visibility: 8mi
Dew Point: 28°   Wind: 5mph
Humidity: 100%   Direction: 330°NNW
Pressure: 29.56"   Gusts: NA
Location:  52.83°N, 119.25°W
Report Text: CYWL 271026Z 33004KT 8SM -SN OVC008 M02/M02 A2956 RMK SC8 SLP047
Loading
Personal Weather Stations






























Interactive Weather Map New forecast layout! Learn more

10-Day Weather Forecast

Advertisements
Track Severe Weather on mobile